KGED

Sussex County Airport

Airport
ICAO code
KGED
Summary
ICAO Region
NAM
ICAO Territory
Location

Georgetown, Delaware,

Elevation
53 ft
Coordinates
38° 41' 23" N , 75° 21' 38" W
KCC
Metar
KGED 142254Z AUTO 24006KT 10SM CLR 30/20 A2982 RMK AO2 LTG DSNT NE SLP096 T03000200

Description

Sussex County Airport is a public airport located 3 km southeast of the central business district of Georgetown, in Sussex County, Delaware.

Climatology

Humid “subtropical” climate (Köppen climate classification Cfa) - characterized by hot, humid summers and cool winters. Significant amounts of precipitation occur in all seasons in most areas. Winter rainfall (and sometimes snowfall) is associated with large storms that the westerlies steer from west to east. Most summer rainfall occurs during thunderstorms and occasional tropical storms (hurricanes).

Airport map

Aerial View

SKYbrary Partners:

Safety knowledge contributed by: